Time;durP1;ratioP1;P1;durP2;ratioP2;P2;SDS_P1;SDS_P2;PMS_P1;PMS_P2;Temp;Humidity;BMP_temperature;BMP_pressure;BME280_temperature;BME280_humidity;BME280_pressure;Samples;Min_cycle;Max_cycle;Signal;HPM_P1;HPM_P2
2022/11/24 00:01:38;;;;;;;10.55;7.53;;;10.00;83.90;;;;;;10897685;32;20040;-75
2022/11/24 00:07:40;;;;;;;10.38;8.32;;;10.10;84.20;;;;;;10897608;32;20023;-74
2022/11/24 00:13:43;;;;;;;10.88;6.97;;;10.00;83.90;;;;;;10902955;32;20089;-74
2022/11/24 00:19:45;;;;;;;10.82;7.62;;;9.90;83.60;;;;;;10903685;32;20027;-74
2022/11/24 00:25:47;;;;;;;9.32;7.00;;;9.80;83.70;;;;;;10899381;32;20054;-74
2022/11/24 00:31:50;;;;;;;11.60;7.45;;;9.80;83.60;;;;;;10903427;32;20016;-74
2022/11/24 00:37:54;;;;;;;9.43;6.07;;;9.70;83.50;;;;;;10903122;32;20066;-75
2022/11/24 00:43:56;;;;;;;8.52;5.20;;;9.70;83.30;;;;;;10903052;32;20028;-74
2022/11/24 00:49:59;;;;;;;9.52;6.97;;;9.60;83.60;;;;;;10902016;32;20359;-74
2022/11/24 00:56:04;;;;;;;9.82;6.60;;;9.60;83.60;;;;;;10902617;32;20023;-75
2022/11/24 01:02:06;;;;;;;9.00;7.20;;;9.50;83.60;;;;;;10900780;32;20059;-74
2022/11/24 01:08:09;;;;;;;8.23;5.45;;;9.60;83.60;;;;;;10902255;32;20050;-75
2022/11/24 01:14:11;;;;;;;9.38;6.80;;;9.60;83.30;;;;;;10902066;32;20035;-75
2022/11/24 01:20:13;;;;;;;8.48;6.32;;;9.60;83.20;;;;;;10901408;32;20050;-75
2022/11/24 01:26:19;;;;;;;7.85;5.82;;;9.30;83.40;;;;;;10901672;32;20032;-74
2022/11/24 01:32:21;;;;;;;9.40;6.15;;;9.20;83.60;;;;;;10901730;32;20024;-74
2022/11/24 01:38:24;;;;;;;10.93;6.70;;;9.20;83.40;;;;;;10901677;32;20059;-75
2022/11/24 01:44:29;;;;;;;6.45;4.82;;;9.30;83.30;;;;;;10901419;32;20318;-75
2022/11/24 01:50:34;;;;;;;8.65;6.00;;;9.30;83.00;;;;;;10952547;32;20057;-74
2022/11/24 01:56:39;;;;;;;5.40;4.40;;;9.00;83.40;;;;;;10900820;32;20031;-75
2022/11/24 02:02:43;;;;;;;8.23;6.03;;;8.90;83.30;;;;;;10900670;32;20035;-75
2022/11/24 02:09:27;;;;;;;8.75;6.72;;;8.70;83.40;;;;;;10896365;32;20045;-75
2022/11/24 02:15:30;;;;;;;8.85;6.35;;;8.70;84.00;;;;;;10709642;33;20060;-75
2022/11/24 02:21:32;;;;;;;8.68;5.70;;;8.90;83.60;;;;;;10712277;33;20036;-75
2022/11/24 02:27:34;;;;;;;8.40;6.10;;;8.90;83.20;;;;;;10713171;33;20056;-75
2022/11/24 02:33:37;;;;;;;9.85;6.87;;;8.70;83.20;;;;;;10712692;33;20021;-75
2022/11/24 02:39:39;;;;;;;9.05;5.93;;;8.50;83.90;;;;;;10712579;33;20166;-75
2022/11/24 02:45:40;;;;;;;15.00;6.90;;;8.70;83.80;;;;;;10712070;33;20037;-75
2022/11/24 02:51:42;;;;;;;9.13;6.82;;;8.80;83.40;;;;;;10832884;32;20032;-75
2022/11/24 02:57:45;;;;;;;10.35;6.95;;;8.70;83.20;;;;;;10899137;32;20035;-75
2022/11/24 03:03:47;;;;;;;8.43;6.15;;;8.70;83.10;;;;;;10899136;32;20441;-75
2022/11/24 03:09:49;;;;;;;10.02;6.78;;;8.70;83.10;;;;;;10898906;32;20028;-75
2022/11/24 03:15:51;;;;;;;8.77;6.43;;;8.70;82.90;;;;;;10898698;32;20100;-75
2022/11/24 03:21:53;;;;;;;10.77;7.40;;;8.50;83.00;;;;;;10894514;32;20023;-75
2022/11/24 03:27:57;;;;;;;10.73;8.05;;;8.40;83.40;;;;;;10898602;32;20027;-75
2022/11/24 03:33:59;;;;;;;9.27;6.22;;;8.40;83.20;;;;;;10894182;32;20031;-75
2022/11/24 03:40:01;;;;;;;8.95;6.37;;;8.20;83.50;;;;;;10898301;32;20046;-75
2022/11/24 03:46:03;;;;;;;11.48;7.28;;;8.30;83.40;;;;;;10900813;32;20058;-75
2022/11/24 03:52:06;;;;;;;7.60;6.12;;;8.40;83.20;;;;;;10956227;32;20426;-75
2022/11/24 03:58:08;;;;;;;11.48;6.93;;;8.40;83.00;;;;;;10904354;32;20050;-75
2022/11/24 04:04:11;;;;;;;8.77;5.72;;;8.40;83.10;;;;;;10904293;32;20031;-75
2022/11/24 04:10:13;;;;;;;8.18;5.95;;;8.50;83.40;;;;;;10955827;32;20031;-75
2022/11/24 04:16:15;;;;;;;10.02;6.80;;;8.40;83.40;;;;;;10903712;32;20040;-75
2022/11/24 04:22:17;;;;;;;9.15;6.53;;;8.20;83.30;;;;;;10903668;32;20049;-75
2022/11/24 04:28:19;;;;;;;10.55;6.57;;;8.20;83.40;;;;;;10903399;32;20054;-75
2022/11/24 04:34:21;;;;;;;9.10;6.57;;;7.90;83.40;;;;;;10903226;32;20042;-75
2022/11/24 04:40:24;;;;;;;10.63;5.93;;;8.00;83.80;;;;;;10903216;32;20058;-75
2022/11/24 04:46:26;;;;;;;8.35;5.78;;;7.70;83.80;;;;;;10901758;32;20027;-75
2022/11/24 04:52:29;;;;;;;8.48;5.37;;;7.70;84.00;;;;;;10902846;32;20023;-75
2022/11/24 04:58:32;;;;;;;11.98;6.45;;;7.90;83.80;;;;;;10902491;32;20398;-75
2022/11/24 05:04:34;;;;;;;9.82;5.78;;;7.80;83.60;;;;;;10902582;32;20055;-75
2022/11/24 05:10:37;;;;;;;15.73;11.27;;;7.70;83.90;;;;;;10902327;32;20407;-75
2022/11/24 05:16:39;;;;;;;8.52;5.95;;;8.00;84.30;;;;;;10902021;32;20346;-75
2022/11/24 05:22:41;;;;;;;9.18;7.72;;;7.90;83.80;;;;;;10901948;32;20058;-75
2022/11/24 05:28:44;;;;;;;8.65;6.18;;;7.90;84.10;;;;;;10901744;32;20062;-75
2022/11/24 05:34:46;;;;;;;8.63;6.32;;;7.70;83.90;;;;;;10901534;32;20050;-75
2022/11/24 05:40:48;;;;;;;6.20;4.60;;;7.50;83.90;;;;;;10901450;32;20351;-75
2022/11/24 05:46:51;;;;;;;8.70;5.40;;;7.20;84.30;;;;;;10901276;32;20023;-75
2022/11/24 05:52:53;;;;;;;7.37;5.00;;;7.30;84.40;;;;;;10900902;32;20031;-75
2022/11/24 05:58:55;;;;;;;10.88;7.78;;;7.60;84.00;;;;;;10896618;32;20062;-75
2022/11/24 06:04:57;;;;;;;10.63;7.28;;;7.80;83.90;;;;;;10900667;32;20215;-75
2022/11/24 06:11:16;;;;;;;15.52;10.90;;;8.10;83.20;;;;;;10900085;32;20421;-75
2022/11/24 06:17:18;;;;;;;12.07;9.32;;;8.20;83.00;;;;;;10900219;32;20057;-75
2022/11/24 06:23:20;;;;;;;14.60;9.68;;;8.20;82.70;;;;;;10899528;32;20035;-75
2022/11/24 06:29:23;;;;;;;10.07;7.12;;;8.00;82.90;;;;;;10946884;32;20050;-75
2022/11/24 06:35:25;;;;;;;10.32;7.35;;;8.10;82.90;;;;;;10899877;32;20031;-75
2022/11/24 06:41:27;;;;;;;10.27;6.60;;;7.90;82.90;;;;;;10899590;32;20417;-75
2022/11/24 06:47:50;;;;;;;11.82;6.28;;;8.10;83.10;;;;;;10333523;32;17543777;-75
2022/11/24 06:53:52;;;;;;;9.52;5.47;;;8.30;83.30;;;;;;10820947;32;20051;-75
2022/11/24 07:00:18;;;;;;;5.82;3.75;;;7.90;83.00;;;;;;10820845;33;20399;-75
2022/11/24 07:06:40;;;;;;;7.25;4.82;;;7.60;83.90;;;;;;10818622;33;20106;-75
2022/11/24 07:12:43;;;;;;;6.90;4.75;;;7.90;83.90;;;;;;10821521;33;20024;-75
2022/11/24 07:18:53;;;;;;;7.87;4.72;;;7.90;83.20;;;;;;10823724;32;20032;-74
2022/11/24 07:24:55;;;;;;;8.10;5.95;;;7.60;83.70;;;;;;10830728;33;20027;-74
2022/11/24 07:30:57;;;;;;;9.20;6.53;;;7.60;84.30;;;;;;10830742;33;20050;-74
2022/11/24 07:36:59;;;;;;;10.52;8.50;;;7.90;83.70;;;;;;10830271;33;20039;-74
2022/11/24 07:43:01;;;;;;;17.02;11.45;;;7.70;83.80;;;;;;10830306;32;20101;-74
2022/11/24 07:49:04;;;;;;;14.70;11.90;;;7.40;83.90;;;;;;10826750;33;20035;-74
2022/11/24 07:55:08;;;;;;;8.18;6.35;;;7.50;84.40;;;;;;10799414;33;20454;-74
2022/11/24 08:01:17;;;;;;;14.18;9.52;;;7.50;84.20;;;;;;10792738;33;20344;-74
2022/11/24 08:07:19;;;;;;;;;;;7.70;85.00;;;;;;10793175;32;20047;-74
2022/11/24 08:13:21;;;;;;;7.95;5.87;;;7.80;84.50;;;;;;10792819;33;19927;-74
2022/11/24 08:19:23;;;;;;;13.07;8.32;;;7.70;84.70;;;;;;10792509;33;20033;-74
2022/11/24 08:25:31;;;;;;;14.60;6.53;;;7.60;84.70;;;;;;10792361;33;20430;-74
2022/11/24 08:31:34;;;;;;;14.15;8.88;;;7.80;85.10;;;;;;10798358;33;20063;-74
2022/11/24 08:37:36;;;;;;;14.10;8.95;;;8.20;85.50;;;;;;10807357;33;20332;-74
2022/11/24 08:43:39;;;;;;;9.65;7.10;;;8.50;85.70;;;;;;10815619;33;20412;-74
2022/11/24 08:49:41;;;;;;;9.10;7.05;;;9.00;85.40;;;;;;10828491;32;20016;-74
2022/11/24 08:55:44;;;;;;;9.70;6.68;;;8.80;85.00;;;;;;10815242;32;20532;-74
2022/11/24 09:01:46;;;;;;;9.95;6.00;;;8.80;85.60;;;;;;10828285;33;20032;-75
2022/11/24 09:07:49;;;;;;;9.10;4.82;;;8.70;85.80;;;;;;10828031;33;20043;-74
2022/11/24 09:13:52;;;;;;;7.30;5.28;;;8.80;86.30;;;;;;10810951;32;20086;-74
2022/11/24 09:19:58;;;;;;;7.85;5.47;;;8.90;86.00;;;;;;10827589;33;20090;-74
2022/11/24 09:26:12;;;;;;;6.47;4.82;;;9.10;86.40;;;;;;10827639;32;20020;-74
2022/11/24 09:32:14;;;;;;;9.50;5.87;;;9.30;86.50;;;;;;10827099;33;20063;-74
2022/11/24 09:38:17;;;;;;;9.00;7.50;;;9.30;86.40;;;;;;10813961;33;20411;-74
2022/11/24 09:44:57;;;;;;;10.20;6.68;;;9.60;86.80;;;;;;10813912;32;20051;-74
2022/11/24 09:51:02;;;;;;;7.28;4.78;;;9.70;86.80;;;;;;10813796;33;20063;-74
2022/11/24 09:57:06;;;;;;;9.13;5.35;;;9.80;86.90;;;;;;10826582;32;20474;-74
2022/11/24 10:03:25;;;;;;;7.82;5.22;;;9.80;86.80;;;;;;10826388;33;20024;-74
2022/11/24 10:09:52;;;;;;;5.20;3.63;;;9.90;87.10;;;;;;10813267;33;20042;-74
2022/11/24 10:16:14;;;;;;;6.15;4.12;;;10.20;87.40;;;;;;10798537;33;20042;-74
2022/11/24 10:22:32;;;;;;;4.57;2.75;;;10.40;87.50;;;;;;10786527;33;20031;-74
2022/11/24 10:28:43;;;;;;;5.95;4.20;;;10.60;87.30;;;;;;10788208;33;20067;-74
2022/11/24 10:34:49;;;;;;;6.85;3.80;;;10.80;87.40;;;;;;10790469;32;20412;-74
2022/11/24 10:40:56;;;;;;;11.32;6.57;;;10.90;87.50;;;;;;10812190;33;20016;-72
2022/11/24 10:46:58;;;;;;;5.70;3.62;;;11.10;87.70;;;;;;10823997;32;20039;-72
2022/11/24 10:53:15;;;;;;;4.93;3.67;;;11.10;86.40;;;;;;10824901;32;20050;-72
2022/11/24 10:59:33;;;;;;;7.07;5.40;;;11.30;87.20;;;;;;10824870;33;20036;-72
2022/11/24 11:05:41;;;;;;;6.15;4.32;;;11.40;86.20;;;;;;10824919;33;20047;-72
2022/11/24 11:11:43;;;;;;;5.93;3.92;;;11.60;86.00;;;;;;10824676;33;20042;-72
2022/11/24 11:17:45;;;;;;;6.18;3.83;;;11.70;85.30;;;;;;10824427;33;20284;-73
2022/11/24 11:23:51;;;;;;;7.90;4.82;;;11.90;84.70;;;;;;10824443;33;20055;-72
2022/11/24 11:29:52;;;;;;;5.35;3.37;;;12.10;85.20;;;;;;10820174;33;20051;-72
2022/11/24 11:35:56;;;;;;;6.57;5.03;;;12.30;85.30;;;;;;10824012;33;20063;-72
2022/11/24 11:42:16;;;;;;;7.57;4.55;;;12.40;84.50;;;;;;10810699;33;20332;-73
2022/11/24 11:48:21;;;;;;;;;;;12.40;85.00;;;;;;10824130;33;20039;-72
2022/11/24 11:54:32;;;;;;;5.90;3.10;;;12.50;85.20;;;;;;10809108;33;19938;-72
2022/11/24 12:01:04;;;;;;;6.55;4.20;;;12.70;85.10;;;;;;10823699;32;20477;-72
2022/11/24 12:07:36;;;;;;;5.57;3.37;;;12.70;85.30;;;;;;10826425;32;20040;-72
2022/11/24 12:13:48;;;;;;;7.03;4.70;;;12.70;85.30;;;;;;10640284;32;20053;-73
2022/11/24 12:20:14;;;;;;;4.53;2.90;;;12.70;85.60;;;;;;10642131;32;20362;-72
2022/11/24 12:26:39;;;;;;;6.25;4.60;;;12.70;85.50;;;;;;10643543;32;20029;-72
2022/11/24 12:32:59;;;;;;;6.07;4.15;;;12.70;85.80;;;;;;10643431;32;20069;-72
2022/11/24 12:39:18;;;;;;;5.55;3.60;;;12.70;85.70;;;;;;10643241;32;20300;-72
2022/11/24 12:45:50;;;;;;;8.57;4.68;;;12.60;85.50;;;;;;10646110;32;20029;-72
2022/11/24 12:52:24;;;;;;;6.90;3.92;;;12.60;86.30;;;;;;10791710;33;20025;-73
2022/11/24 12:58:38;;;;;;;7.03;4.10;;;12.70;86.10;;;;;;10791191;32;20036;-72
2022/11/24 13:05:27;;;;;;;5.82;4.28;;;12.80;86.30;;;;;;10791490;33;20043;-73
2022/11/24 13:11:39;;;;;;;6.25;3.85;;;13.00;85.90;;;;;;10791258;33;20036;-73
2022/11/24 13:17:40;;;;;;;6.57;4.43;;;12.90;85.40;;;;;;10786945;33;20059;-72
2022/11/24 13:23:55;;;;;;;8.73;5.37;;;12.90;85.50;;;;;;10790872;33;20037;-72
2022/11/24 13:29:57;;;;;;;13.00;7.12;;;12.80;85.30;;;;;;10790735;33;20029;-73
2022/11/24 13:36:01;;;;;;;10.27;5.05;;;12.80;85.70;;;;;;10790353;33;20356;-72
2022/11/24 13:42:04;;;;;;;5.18;4.12;;;12.80;85.50;;;;;;10796932;33;20344;-73
2022/11/24 13:48:18;;;;;;;7.97;5.10;;;12.80;85.70;;;;;;10823949;33;20039;-73
2022/11/24 13:54:22;;;;;;;8.73;5.30;;;12.70;85.20;;;;;;10826829;33;20290;-73
2022/11/24 14:00:54;;;;;;;8.07;5.25;;;12.70;85.20;;;;;;10826595;33;20032;-73
2022/11/24 14:07:13;;;;;;;7.00;4.97;;;13.00;85.70;;;;;;10631575;33;20050;-73
2022/11/24 14:13:25;;;;;;;5.95;4.43;;;13.20;85.30;;;;;;10625115;33;20060;-73
2022/11/24 14:19:27;;;;;;;8.85;6.57;;;13.30;85.50;;;;;;10640591;33;20053;-72
2022/11/24 14:25:31;;;;;;;9.35;5.82;;;13.70;85.00;;;;;;10641582;33;20033;-73
2022/11/24 14:31:33;;;;;;;11.07;7.10;;;13.40;85.20;;;;;;10640663;33;20064;-72
2022/11/24 14:37:35;;;;;;;9.15;5.32;;;13.30;85.10;;;;;;10640688;33;20033;-73
2022/11/24 14:43:37;;;;;;;8.40;5.03;;;13.00;85.60;;;;;;10776042;33;20043;-73
2022/11/24 14:49:41;;;;;;;8.20;4.85;;;12.70;86.40;;;;;;10856482;27;20328;-73
2022/11/24 14:55:43;;;;;;;6.18;4.82;;;12.50;86.80;;;;;;10862142;32;20062;-73
2022/11/24 15:01:45;;;;;;;7.87;5.03;;;12.70;87.20;;;;;;10848694;32;20423;-73
2022/11/24 15:07:51;;;;;;;5.87;3.72;;;12.80;87.40;;;;;;10861595;32;20323;-73
2022/11/24 15:13:57;;;;;;;8.10;4.37;;;12.90;87.20;;;;;;10825207;32;20055;-73
2022/11/24 15:20:09;;;;;;;7.10;4.40;;;12.70;87.40;;;;;;10824491;33;20055;-72
2022/11/24 15:26:11;;;;;;;10.63;5.60;;;12.30;87.60;;;;;;10824660;32;20319;-73
2022/11/24 15:32:14;;;;;;;5.10;3.37;;;12.10;88.00;;;;;;10824084;33;20312;-72
2022/11/24 15:38:17;;;;;;;6.85;4.57;;;11.90;88.10;;;;;;10849985;32;20438;-73
2022/11/24 15:44:19;;;;;;;7.10;4.97;;;11.80;88.10;;;;;;10865436;32;20070;-73
2022/11/24 15:50:22;;;;;;;6.45;3.97;;;11.70;88.30;;;;;;10854377;32;20016;-73
2022/11/24 15:56:28;;;;;;;6.03;4.00;;;11.60;88.20;;;;;;10867434;32;20054;-73
2022/11/24 16:02:30;;;;;;;11.80;5.32;;;11.50;88.20;;;;;;10863360;32;20050;-73
2022/11/24 16:08:32;;;;;;;10.15;6.60;;;11.30;88.10;;;;;;10866927;32;20422;-73
2022/11/24 16:14:35;;;;;;;7.55;4.82;;;11.20;88.40;;;;;;10866850;32;20081;-73
2022/11/24 16:20:38;;;;;;;10.77;7.55;;;11.10;88.10;;;;;;10866709;32;20062;-73
2022/11/24 16:26:40;;;;;;;9.60;5.47;;;11.00;88.20;;;;;;10866317;32;20293;-73
2022/11/24 16:32:42;;;;;;;11.55;8.18;;;10.90;88.00;;;;;;10866642;32;20110;-73
2022/11/24 16:39:06;;;;;;;17.27;10.63;;;10.70;88.10;;;;;;10866955;32;20023;-73
2022/11/24 16:45:11;;;;;;;18.58;13.40;;;10.70;88.10;;;;;;10865726;32;20024;-73
2022/11/24 16:51:15;;;;;;;17.70;13.55;;;10.70;87.90;;;;;;10865411;32;20016;-73
2022/11/24 16:57:17;;;;;;;15.27;10.98;;;10.60;87.80;;;;;;10860779;32;20059;-72
2022/11/24 17:03:20;;;;;;;16.00;13.93;;;10.50;88.00;;;;;;10865468;32;20024;-72
2022/11/24 17:09:22;;;;;;;15.90;14.10;;;10.60;87.80;;;;;;10865373;32;20058;-72
2022/11/24 17:15:24;;;;;;;16.83;12.25;;;10.60;87.70;;;;;;10851894;32;20319;-73
2022/11/24 17:21:27;;;;;;;14.55;10.82;;;10.50;87.60;;;;;;10851654;32;20024;-73
2022/11/24 17:27:29;;;;;;;16.12;12.27;;;10.40;87.70;;;;;;10864836;32;20426;-73
2022/11/24 17:33:32;;;;;;;13.02;10.30;;;10.30;87.60;;;;;;10864751;32;20050;-72
2022/11/24 17:39:34;;;;;;;14.95;12.65;;;10.20;87.70;;;;;;10864319;32;20032;-73
2022/11/24 17:45:36;;;;;;;13.07;11.20;;;10.30;87.70;;;;;;10864654;32;20347;-73
2022/11/24 17:51:38;;;;;;;14.07;11.88;;;10.30;87.50;;;;;;10864414;32;20023;-73
2022/11/24 17:57:41;;;;;;;14.87;12.05;;;10.30;87.40;;;;;;10864216;32;20058;-73
2022/11/24 18:03:43;;;;;;;26.67;17.45;;;10.20;87.20;;;;;;10863469;32;20292;-73
2022/11/24 18:09:45;;;;;;;15.80;12.68;;;10.10;87.10;;;;;;10864066;32;20020;-73
2022/11/24 18:15:48;;;;;;;17.48;13.77;;;10.10;87.00;;;;;;10863330;32;20028;-73
2022/11/24 18:21:50;;;;;;;14.30;12.45;;;9.90;87.00;;;;;;10862267;32;20032;-73
2022/11/24 18:27:52;;;;;;;14.55;11.40;;;9.80;87.10;;;;;;10863087;32;20012;-73
2022/11/24 18:33:54;;;;;;;23.23;12.52;;;9.80;87.10;;;;;;10858671;32;20024;-73
2022/11/24 18:39:56;;;;;;;20.55;17.55;;;9.80;86.90;;;;;;10862822;32;20059;-72
2022/11/24 18:46:12;;;;;;;19.33;14.70;;;9.80;86.90;;;;;;10862660;32;20028;-73
2022/11/24 18:52:14;;;;;;;14.65;13.15;;;9.80;87.00;;;;;;10862406;32;20042;-72
2022/11/24 18:58:17;;;;;;;20.55;18.58;;;9.70;86.80;;;;;;10862230;32;20352;-72
2022/11/24 19:04:19;;;;;;;18.50;16.50;;;9.70;86.70;;;;;;10862002;32;20023;-72
2022/11/24 19:10:21;;;;;;;20.12;16.10;;;9.70;86.70;;;;;;10861689;32;20407;-72
2022/11/24 19:16:23;;;;;;;27.62;16.40;;;9.60;86.60;;;;;;10858938;32;20027;-72
2022/11/24 19:22:25;;;;;;;20.15;17.30;;;9.60;86.40;;;;;;10861594;32;20089;-72
2022/11/24 19:28:28;;;;;;;22.55;17.85;;;9.50;86.50;;;;;;10861585;32;20422;-72
2022/11/24 19:34:42;;;;;;;23.40;19.30;;;9.50;86.80;;;;;;10861364;32;20297;-72
2022/11/24 19:40:45;;;;;;;22.40;19.92;;;9.40;86.60;;;;;;10861114;32;20042;-72
2022/11/24 19:46:47;;;;;;;27.75;22.42;;;9.30;86.50;;;;;;10861072;32;20024;-72
2022/11/24 19:52:50;;;;;;;22.92;20.17;;;9.50;86.70;;;;;;10856797;32;20020;-73
2022/11/24 19:58:53;;;;;;;21.98;19.65;;;9.70;86.60;;;;;;10859666;32;20035;-72
2022/11/24 20:04:55;;;;;;;32.08;27.08;;;9.70;86.10;;;;;;10860709;32;20055;-72
2022/11/24 20:11:05;;;;;;;26.87;22.73;;;9.70;85.70;;;;;;10860586;32;20028;-73
2022/11/24 20:17:08;;;;;;;25.88;21.40;;;9.60;85.30;;;;;;10860395;32;20024;-72
2022/11/24 20:23:10;;;;;;;23.20;19.48;;;9.70;85.20;;;;;;10856064;32;20028;-73
2022/11/24 20:29:13;;;;;;;28.50;21.25;;;9.70;84.70;;;;;;10864010;32;20334;-73
2022/11/24 20:35:15;;;;;;;21.12;18.15;;;9.70;84.60;;;;;;10866309;32;20039;-72
2022/11/24 20:41:26;;;;;;;18.42;16.48;;;9.80;84.20;;;;;;10866028;32;20036;-73
2022/11/24 20:47:29;;;;;;;31.67;23.58;;;9.80;84.00;;;;;;10865948;32;20015;-73
2022/11/24 20:53:36;;;;;;;20.75;18.42;;;9.80;83.80;;;;;;10852399;32;20011;-73
2022/11/24 20:59:38;;;;;;;23.67;20.67;;;9.80;83.50;;;;;;10865511;32;20062;-73
2022/11/24 21:05:40;;;;;;;24.85;20.25;;;9.80;83.70;;;;;;10865525;32;20020;-73
2022/11/24 21:11:42;;;;;;;23.90;21.27;;;9.80;83.80;;;;;;10865191;32;20058;-73
2022/11/24 21:17:44;;;;;;;27.42;20.27;;;9.70;83.50;;;;;;10865178;32;20331;-73
2022/11/24 21:23:47;;;;;;;23.48;17.40;;;9.60;83.30;;;;;;10851898;32;20051;-73
2022/11/24 21:29:49;;;;;;;22.80;17.95;;;9.50;83.40;;;;;;10864727;32;20031;-73
2022/11/24 21:35:51;;;;;;;22.98;19.42;;;9.60;83.80;;;;;;10864522;32;20050;-73
2022/11/24 21:41:53;;;;;;;23.60;20.88;;;9.70;84.10;;;;;;10863625;32;20054;-73
2022/11/24 21:47:55;;;;;;;23.58;21.17;;;9.60;83.70;;;;;;10860100;32;20371;-73
2022/11/24 21:53:58;;;;;;;25.75;23.10;;;9.50;83.70;;;;;;10863924;32;20012;-75
2022/11/24 22:00:00;;;;;;;26.12;20.27;;;9.50;83.60;;;;;;10863518;32;20032;-75
2022/11/24 22:06:02;;;;;;;26.40;23.62;;;9.50;83.50;;;;;;10863584;32;20020;-75
2022/11/24 22:12:05;;;;;;;22.37;20.02;;;9.40;83.30;;;;;;10863551;32;20020;-75
2022/11/24 22:18:07;;;;;;;21.30;18.83;;;9.20;83.60;;;;;;10863279;32;20050;-75
2022/11/24 22:24:10;;;;;;;26.42;23.23;;;9.30;83.80;;;;;;10863056;32;20031;-75
2022/11/24 22:30:12;;;;;;;24.45;21.83;;;9.20;83.90;;;;;;10849808;32;20403;-73
2022/11/24 22:36:19;;;;;;;25.40;22.70;;;9.30;84.20;;;;;;10862372;32;20035;-73
2022/11/24 22:42:21;;;;;;;28.62;25.60;;;9.40;84.20;;;;;;10862787;32;20051;-73
2022/11/24 22:48:23;;;;;;;23.73;21.08;;;9.20;84.00;;;;;;10865360;26;20043;-73
2022/11/24 22:54:25;;;;;;;24.08;21.50;;;9.20;84.00;;;;;;10862458;32;20015;-73
2022/11/24 23:00:27;;;;;;;30.62;27.25;;;9.30;83.90;;;;;;10862340;32;20023;-73
2022/11/24 23:06:31;;;;;;;24.60;21.30;;;9.30;84.60;;;;;;10862163;32;20028;-73
2022/11/24 23:12:33;;;;;;;33.47;29.00;;;9.40;84.60;;;;;;10857797;32;20066;-73
2022/11/24 23:18:36;;;;;;;27.37;24.50;;;9.40;85.20;;;;;;10861736;32;20415;-73
2022/11/24 23:24:38;;;;;;;24.20;21.62;;;9.40;85.00;;;;;;10861673;32;20028;-73
2022/11/24 23:30:40;;;;;;;22.77;19.73;;;9.20;84.60;;;;;;10857474;32;20352;-73
2022/11/24 23:36:42;;;;;;;26.23;20.80;;;9.00;84.80;;;;;;10861501;32;20031;-73
2022/11/24 23:42:47;;;;;;;28.50;24.40;;;9.00;84.60;;;;;;10861461;32;20058;-73
2022/11/24 23:48:51;;;;;;;28.15;21.20;;;9.20;84.60;;;;;;10861187;32;20050;-73
2022/11/24 23:54:53;;;;;;;23.50;19.70;;;9.20;84.30;;;;;;10860842;32;20023;-73
